EDFH

Frankfurt-Hahn Airport

Hahn, Germany
METAR EDFH 171620Z 33010KT 9999 SCT021 19/14 Q1019
Observed Flight Rules
Aug-17 @ 16:20 UTC (31 minutes ago) Visual Flight Rules
Wind Visibility Clouds
330° at 10 knots 10,000+ meters
  • Scattered at 2,100' AGL
Temperatures Readings
Current 19°C / 66°F
Dewpoint 14°C / 57°F
Humidity 73%
Altimeter 30.09" Hg
Pressure 1019 hPa
Elevation 498
METAR EDFH 171620Z 33010KT 9999 SCT021 19/14 Q1019
Observed Flight Rules
Aug-17 @ 16:20 UTC
(31 minutes ago)
VFR
Wind Visibility
330° at 10 knots 10,000+ meters
Clouds
  • Scattered at 2,100' AGL
Temperature Dewpoint
19°C / 66°F 14°C / 57°F
Humidity Altimeter Pressure
73% 30.09" Hg 1019 hPa